首页
METAR-TAF:

METAR-TAF

机场 :

皮耶什佳尼, 斯洛伐克

纬度: 48-37-30N, 经度: 017-49-43E, 海拔: 163米

当前天气观测

该预报发布于25分钟前的00:00 UTC
风速2节,风向多变
温度 1°C
湿度 93%
气压 1019 hPa
能見度: 0300

METAR: LZPP 080000Z AUTO VRB02KT 0300 R01/0800N FG OVC002/// 01/M00 Q1019

时间: 01:25 (00:25 UTC)

预报

该预报发布于7小时和25分钟前的17:00 UTC
预报有效从07日的 18点(UTC)到 08日的 03点(UTC)
风速4节,风向
能見度: 2000
阴天层高于400英尺
轻雾
短暂存在
从 07日的 18点(UTC)到 08日的 03点(UTC)
能見度: 0800
阴天层高于200英尺
冻雾
几率 40% :
短暂存在
从 07日的 18点(UTC)到 08日的 00点(UTC)
能見度: 0300
阴天层高于100英尺
(小) 冻, 毛毛雨, 冻雾

TAF: LZPP 071700Z 0718/0803 17004KT 2000 BR OVC004 TEMPO 0718/0803 0800 FZFG OVC002 PROB40 TEMPO 0718/0800 0300 -FZDZ FZFG OVC001

超过4000个机场的气象观测和天气预报(METAR&TAF报告)。

可查询的气象台以黄色和红色小点在地图上表示。

将鼠标移到小点上方,可查看气象台名称。

然后点击查看天气观测和预报。

如需切换地图:点击带黑十字的绿色按钮放大地图;点击带横线的绿色按钮缩小地图;或者点击绿色箭头查看邻近地区的地图。


METAR-TAF: